St. Jones River Dover DE USA current weather conditions

sailwx.info

Wind from 314 at 6 knots gusting 11

Air temperature 4.3° C
Dewpoint -4.4° C

Last reported at 2019-Dec-11 19:05 UTC.
Time now 2019-Dec-11 20:04 UTC

Location: N 39°10' W 075°36'.
View on Google Maps.

See reports from other nearby stations

  
Tides and Currents Weather Stations Pressure Air Temp Water Temp Dewpoint Dewpoint Depression Visibility Wind Speed Wind Dir Waves Ship Positions
date/time (UTC)wind fromknots sea level pressurealtimeterstation pressurevisibilityair tempwater tempwave heightnotes
2019-Dec-11 19:05 314 6 gusting 11 4.3
2019-Dec-11 19:00 279 7 gusting 12 4.2
2019-Dec-11 18:55 288 4 gusting 6 3.8
2019-Dec-11 18:50 292 7 gusting 10 3.9
2019-Dec-11 18:45 272 7 gusting 12 4.2
2019-Dec-11 18:40 287 6 gusting 10 4.2
2019-Dec-11 18:35 289 7 gusting 11 4.0
2019-Dec-11 18:30 289 7 gusting 12 4.0
2019-Dec-11 18:25 286 6 gusting 10 3.6
2019-Dec-11 18:20 295 5 gusting 9 3.5
2019-Dec-11 18:15 340 5 gusting 8 3.4
2019-Dec-11 18:10 319 6 gusting 11 3.8
2019-Dec-11 18:05 326 4 gusting 10 3.8
2019-Dec-11 18:00 307 6 gusting 10 3.5
2019-Dec-11 17:55 317 6 gusting 12 3.4
2019-Dec-11 17:50 342 8 gusting 12 3.9
2019-Dec-11 17:45 352 6 gusting 10 4.0
2019-Dec-11 17:40 323 6 gusting 8 3.5
2019-Dec-11 17:35 310 6 gusting 9 3.7
2019-Dec-11 17:30 302 5 gusting 9 3.5
2019-Dec-11 17:25 303 6 gusting 10 3.3
2019-Dec-11 17:20 309 4 gusting 6 3.5
2019-Dec-11 17:15 305 5 gusting 8 3.3
2019-Dec-11 17:10 316 6 gusting 9 3.2
2019-Dec-11 17:05 330 5 gusting 9 3.2
2019-Dec-11 17:00 316 6 gusting 10 3.2
2019-Dec-11 16:55 305 7 gusting 11 3.3
2019-Dec-11 16:50 296 4 gusting 10 3.9
2019-Dec-11 16:45 318 4 gusting 7 3.8
2019-Dec-11 16:40 342 5 gusting 10 3.5
2019-Dec-11 16:35 334 4 gusting 8 3.1
2019-Dec-11 16:30 340 6 gusting 9 3.1
2019-Dec-11 16:25 349 5 gusting 10 3.5
2019-Dec-11 16:20 312 4 gusting 8 3.5
2019-Dec-11 16:15 317 5 gusting 9 3.5
2019-Dec-11 16:10 315 6 gusting 10 3.4
2019-Dec-11 15:55 320 5 gusting 8 3.4
2019-Dec-11 15:50 324 4 gusting 7 3.3
2019-Dec-11 15:45 328 4 gusting 7 2.9
2019-Dec-11 15:40 318 7 gusting 10 2.6
2019-Dec-11 15:35 325 6 gusting 9 2.6
2019-Dec-11 15:30 340 6 gusting 11 2.5
2019-Dec-11 15:25 325 5 gusting 9 2.4
2019-Dec-11 15:20 328 3 gusting 9 2.5
2019-Dec-11 15:15 320 3 gusting 6 2.5
2019-Dec-11 15:10 310 4 gusting 7 2.3
2019-Dec-11 15:05 321 4 gusting 7 2.1
2019-Dec-11 15:00 322 5 gusting 7 2.0
2019-Dec-11 14:55 317 3 gusting 6 2.0
2019-Dec-11 14:50 321 3 gusting 4 1.9
2019-Dec-11 14:45 325 3 gusting 6 1.8
2019-Dec-11 14:40 313 2 gusting 5 1.6
2019-Dec-11 14:35 313 4 gusting 6 1.5
2019-Dec-11 14:30 311 4 gusting 7 1.4
2019-Dec-11 14:25 311 3 gusting 6 1.4
2019-Dec-11 14:20 309 3 gusting 4 1.3
2019-Dec-11 14:15 304 2 gusting 4 1.2
2019-Dec-11 14:10 311 3 gusting 6 1.1
2019-Dec-11 14:05 309 3 gusting 6 1.0
2019-Dec-11 14:00 308 3 gusting 5 1.0
2019-Dec-11 13:55 313 3 gusting 4 1.0
2019-Dec-11 13:50 305 3 gusting 5 0.9
2019-Dec-11 13:45 310 3 gusting 5 0.9
2019-Dec-11 13:40 300 4 gusting 5 0.9
2019-Dec-11 13:35 302 4 gusting 7 0.9
2019-Dec-11 13:30 297 3 gusting 5 0.9
2019-Dec-11 13:25 299 3 gusting 5 0.9
2019-Dec-11 13:20 307 4 gusting 6 0.9
2019-Dec-11 13:15 306 3 gusting 7 0.8
2019-Dec-11 13:10 298 3 gusting 6 0.8
2019-Dec-11 13:05 300 2 gusting 4 0.8
2019-Dec-11 13:00 308 2 gusting 4 0.8
2019-Dec-11 12:55 314 2 gusting 3 0.8
2019-Dec-11 12:50 312 2 gusting 4 0.8
2019-Dec-11 12:45 293 3 gusting 4 0.8
2019-Dec-11 12:40 309 2 gusting 4 0.7
2019-Dec-11 12:35 315 3 gusting 4 0.7
2019-Dec-11 12:30 316 2 gusting 4 0.7
2019-Dec-11 12:25 310 2 gusting 4 0.7
2019-Dec-11 12:20 307 3 gusting 6 0.7
2019-Dec-11 12:15 299 4 gusting 7 0.7
2019-Dec-11 12:10 293 4 gusting 6 0.7
2019-Dec-11 12:05 297 3 gusting 5 0.7
2019-Dec-11 12:00 297 3 gusting 5 0.7
2019-Dec-11 11:55 300 2 gusting 5 0.6
2019-Dec-11 11:50 302 2 gusting 3 0.6
2019-Dec-11 11:45 312 3 gusting 5 0.6
2019-Dec-11 11:40 317 3 gusting 4 0.6
2019-Dec-11 11:35 309 3 gusting 5 0.6
2019-Dec-11 11:30 298 4 gusting 6 0.6
2019-Dec-11 11:25 317 3 gusting 6 0.6
2019-Dec-11 11:20 305 4 gusting 8 0.6
2019-Dec-11 11:15 309 3 gusting 6 0.6
2019-Dec-11 11:10 309 4 gusting 6 0.6
2019-Dec-11 11:05 311 5 gusting 7 0.6
2019-Dec-11 11:00 312 4 gusting 8 0.5
2019-Dec-11 10:55 303 3 gusting 6 0.5
2019-Dec-11 10:50 311 4 gusting 7 0.5
2019-Dec-11 10:45 317 4 gusting 7 0.5
2019-Dec-11 10:40 330 4 gusting 7 0.5
2019-Dec-11 10:35 321 4 gusting 7 0.4
2019-Dec-11 10:30 330 3 gusting 5 0.4
2019-Dec-11 10:25 317 2 gusting 4 0.4
2019-Dec-11 10:20 303 3 gusting 5 0.4
2019-Dec-11 10:15 315 2 gusting 3 0.4
2019-Dec-11 10:10 310 2 gusting 4 0.4
2019-Dec-11 10:05 315 2 gusting 3 0.4
2019-Dec-11 10:00 326 3 gusting 5 0.4
2019-Dec-11 09:55 337 3 gusting 4 0.4
2019-Dec-11 09:50 334 2 gusting 4 0.4
2019-Dec-11 09:45 327 3 gusting 6 0.5
2019-Dec-11 09:40 319 2 gusting 5 0.5
2019-Dec-11 09:35 323 1 gusting 3 0.5
2019-Dec-11 09:30 317 2 gusting 3 0.5
2019-Dec-11 09:25 321 2 gusting 3 0.5
2019-Dec-11 09:20 333 2 gusting 3 0.4
2019-Dec-11 09:15 315 2 gusting 3 0.4
2019-Dec-11 09:10 327 1 gusting 2 0.4
2019-Dec-11 09:05 339 2 gusting 4 0.4
2019-Dec-11 09:00 347 2 gusting 4 0.4
2019-Dec-11 08:55 335 2 gusting 4 0.4
2019-Dec-11 08:50 332 3 gusting 5 0.4
2019-Dec-11 08:45 338 2 gusting 5 0.4
2019-Dec-11 08:40 344 4 gusting 7 0.5
2019-Dec-11 08:35 343 3 gusting 7 0.4
2019-Dec-11 08:30 335 4 gusting 9 0.5
2019-Dec-11 08:25 336 4 gusting 7 0.5
2019-Dec-11 08:20 334 4 gusting 7 0.5
2019-Dec-11 08:15 321 5 gusting 9 0.6
2019-Dec-11 08:10 335 5 gusting 8 0.6
2019-Dec-11 08:05 317 4 gusting 8 0.7
2019-Dec-11 08:00 317 4 gusting 7 0.7
2019-Dec-11 07:55 314 5 gusting 8 0.8
2019-Dec-11 07:50 321 6 gusting 9 0.8
2019-Dec-11 07:45 322 6 gusting 10 0.9
2019-Dec-11 07:40 308 5 gusting 9 1.0
2019-Dec-11 07:35 311 5 gusting 9 1.1
2019-Dec-11 07:30 306 5 gusting 9 1.3
2019-Dec-11 07:25 300 6 gusting 9 1.5
2019-Dec-11 07:20 307 6 gusting 10 1.7
2019-Dec-11 07:15 302 6 gusting 11 1.9
2019-Dec-11 07:10 302 7 gusting 12 1.9
2019-Dec-11 07:05 306 8 gusting 13 2.1
2019-Dec-11 07:00 307 9 gusting 16 2.2
2019-Dec-11 06:55 314 9 gusting 13 2.3
2019-Dec-11 06:50 315 10 gusting 15 2.5
2019-Dec-11 06:45 320 7 gusting 13 2.6
2019-Dec-11 06:40 321 7 gusting 12 2.7
2019-Dec-11 06:35 324 8 gusting 14 2.7
2019-Dec-11 06:30 328 9 gusting 16 2.7
2019-Dec-11 06:25 334 6 gusting 10 2.8
2019-Dec-11 06:20 336 7 gusting 12 2.9
2019-Dec-11 06:15 326 8 gusting 14 3.0
2019-Dec-11 06:10 328 9 gusting 15 3.1
2019-Dec-11 06:05 329 8 gusting 15 3.2
2019-Dec-11 06:00 328 8 gusting 13 3.3
2019-Dec-11 05:55 325 6 gusting 11 3.5
2019-Dec-11 05:50 326 7 gusting 13 3.6
2019-Dec-11 05:45 329 10 gusting 18 3.8
2019-Dec-11 05:40 329 9 gusting 15 4.1
2019-Dec-11 05:35 328 8 gusting 15 4.3
2019-Dec-11 05:30 323 8 gusting 17 4.4
2019-Dec-11 05:25 331 6 gusting 13 4.5
2019-Dec-11 05:20 322 8 gusting 16 4.5
2019-Dec-11 05:15 339 5 gusting 8 4.5
2019-Dec-11 05:10 324 5 gusting 10 4.6
2019-Dec-11 05:05 323 6 gusting 9 4.6
2019-Dec-11 05:00 317 7 gusting 14 4.7
2019-Dec-11 04:55 330 8 gusting 14 4.7
2019-Dec-11 04:50 324 7 gusting 11 4.8
2019-Dec-11 04:45 344 5 gusting 13 4.9
2019-Dec-11 04:40 350 6 gusting 14 5.1
2019-Dec-11 04:35 344 7 gusting 13 5.4
2019-Dec-11 04:30 339 6 gusting 11 5.6
2019-Dec-11 04:25 352 6 gusting 12 5.7
2019-Dec-11 04:20 330 6 gusting 11 5.9
2019-Dec-11 04:15 333 7 gusting 10 6.0
2019-Dec-11 04:10 339 5 gusting 13 6.1
2019-Dec-11 04:05 328 9 gusting 14 6.1
2019-Dec-11 04:00 336 7 gusting 14 6.1
2019-Dec-11 03:55 340 6 gusting 12 6.2
2019-Dec-11 03:50 346 5 gusting 11 6.2
2019-Dec-11 03:45 348 7 gusting 12 6.3
2019-Dec-11 03:40 354 7 gusting 12 6.5
2019-Dec-11 03:35 343 5 gusting 11 6.6
2019-Dec-11 03:30 341 5 gusting 10 6.7
2019-Dec-11 03:25 329 6 gusting 11 6.7
2019-Dec-11 03:20 345 5 gusting 9 6.8
2019-Dec-11 03:15 335 5 gusting 9 6.9
2019-Dec-11 03:10 338 7 gusting 15 6.9
2019-Dec-11 03:05 340 5 gusting 11 7.0
2019-Dec-11 03:00 335 8 gusting 15 7.2
2019-Dec-11 02:55 332 8 gusting 16 7.3
2019-Dec-11 02:50 338 6 gusting 13 7.4
2019-Dec-11 02:45 338 5 gusting 10 7.5
2019-Dec-11 02:40 334 5 gusting 9 7.6
2019-Dec-11 02:35 333 5 gusting 9 7.7
2019-Dec-11 02:30 330 8 gusting 12 7.8
2019-Dec-11 02:25 339 6 gusting 11 7.9
2019-Dec-11 02:20 340 5 gusting 9 8.0
2019-Dec-11 02:15 340 5 gusting 8 8.1
2019-Dec-11 02:10 339 6 gusting 10 8.2
2019-Dec-11 02:05 334 5 gusting 10 8.3
2019-Dec-11 02:00 327 6 gusting 12 8.5
2019-Dec-11 01:55 331 8 gusting 14 8.7
2019-Dec-11 01:50 332 10 gusting 17 8.8
2019-Dec-11 01:45 339 5 gusting 12 8.9
2019-Dec-11 01:40 326 6 gusting 10 9.0
2019-Dec-11 01:35 322 5 gusting 11 9.1
2019-Dec-11 01:30 315 5 gusting 9 9.2
2019-Dec-11 01:25 317 5 gusting 9 9.4
2019-Dec-11 01:20 305 6 gusting 10 9.6
2019-Dec-11 01:15 308 8 gusting 12 9.7
2019-Dec-11 01:10 306 8 gusting 19 9.9
2019-Dec-11 01:05 311 5 gusting 10 10.3
2019-Dec-11 01:00 323 9 gusting 17 10.4
2019-Dec-11 00:55 311 6 gusting 10 10.7
2019-Dec-11 00:50 324 6 gusting 9 10.8
2019-Dec-11 00:45 316 7 gusting 16 10.8
2019-Dec-11 00:40 316 6 gusting 19 10.9
2019-Dec-11 00:35 317 5 gusting 9 11.0
2019-Dec-11 00:30 320 4 gusting 7 11.0
2019-Dec-11 00:25 313 4 gusting 7 11.1
2019-Dec-11 00:20 319 4 gusting 6 11.2
2019-Dec-11 00:15 318 4 gusting 7 11.2
2019-Dec-11 00:10 311 4 gusting 8 11.3
2019-Dec-11 00:05 314 3 gusting 7 11.4
2019-Dec-11 00:00 319 5 gusting 9 11.6
2019-Dec-10 23:55 319 7 gusting 13 11.8
2019-Dec-10 23:50 303 5 gusting 8 11.9
2019-Dec-10 23:45 309 6 gusting 12 12.0
2019-Dec-10 23:40 325 7 gusting 10 12.0
2019-Dec-10 23:35 333 7 gusting 12 12.2
2019-Dec-10 23:30 328 9 gusting 15 12.6
2019-Dec-10 23:25 319 5 gusting 8 12.9
2019-Dec-10 23:20 316 4 gusting 9 13.0
2019-Dec-10 23:15 308 5 gusting 8 13.0
2019-Dec-10 23:10 317 4 gusting 6 13.0
2019-Dec-10 23:05 314 3 gusting 5 13.0
2019-Dec-10 23:00 311 3 gusting 6 12.9
2019-Dec-10 22:55 329 3 gusting 5 13.1
2019-Dec-10 22:50 324 3 gusting 5 13.0
2019-Dec-10 22:45 311 3 gusting 4 13.1
2019-Dec-10 22:40 320 2 gusting 4 13.1
2019-Dec-10 22:35 308 4 gusting 5 13.2
2019-Dec-10 22:30 312 3 gusting 5 13.3
2019-Dec-10 22:25 308 4 gusting 7 13.4
2019-Dec-10 22:20 306 6 gusting 10 13.5
2019-Dec-10 22:15 301 6 gusting 11 13.5
2019-Dec-10 22:10 310 6 gusting 11 13.5
2019-Dec-10 22:05 300 6 gusting 8 13.6
2019-Dec-10 22:00 299 6 gusting 10 13.7
2019-Dec-10 21:55 302 7 gusting 13 13.8
2019-Dec-10 21:50 300 10 gusting 16 13.8
2019-Dec-10 21:45 301 7 gusting 12 14.1
2019-Dec-10 21:40 304 5 gusting 8 14.2
2019-Dec-10 21:35 317 3 gusting 7 14.2
2019-Dec-10 21:30 334 5 gusting 10 14.3
2019-Dec-10 21:25 326 4 gusting 8 14.5
2019-Dec-10 21:20 322 5 gusting 7 14.7
2019-Dec-10 21:15 309 5 gusting 9 14.8
2019-Dec-10 21:10 307 4 gusting 7 14.8
2019-Dec-10 21:05 299 4 gusting 6 14.9
2019-Dec-10 21:00 291 3 gusting 6 14.9
2019-Dec-10 20:55 280 3 gusting 6 14.9
2019-Dec-10 20:50 293 3 gusting 6 14.9
2019-Dec-10 20:45 280 3 gusting 5 15.0
2019-Dec-10 20:40 272 3 gusting 5 15.0
2019-Dec-10 20:35 286 4 gusting 6 15.0
2019-Dec-10 20:30 311 3 gusting 5 15.0
2019-Dec-10 20:25 309 2 gusting 3 15.1
2019-Dec-10 20:20 283 3 gusting 4 15.1
2019-Dec-10 20:15 289 3 gusting 5 15.2
2019-Dec-10 20:10 280 4 gusting 6 15.2
2019-Dec-10 20:05 294 5 gusting 9 15.2
2019-Dec-10 20:00 283 4 gusting 8 15.3
2019-Dec-10 19:55 281 4 gusting 6 15.3
2019-Dec-10 19:50 291 4 gusting 7 15.4
2019-Dec-10 19:45 298 4 gusting 6 15.4
2019-Dec-10 19:40 282 4 gusting 6 15.5
2019-Dec-10 19:35 271 5 gusting 9 15.5
2019-Dec-10 19:30 278 4 gusting 8 15.6
2019-Dec-10 19:25 266 5 gusting 8 15.6
2019-Dec-10 19:20 276 6 gusting 11 15.7
2019-Dec-10 19:15 282 5 gusting 8 15.7
2019-Dec-10 19:10 272 6 gusting 10 15.8
2019-Dec-10 19:05 261 7 gusting 11 15.8
2019-Dec-10 19:00 250 7 gusting 12 15.8
2019-Dec-10 18:55 248 6 gusting 11 15.9
2019-Dec-10 18:50 257 7 gusting 11 15.9
2019-Dec-10 18:45 251 7 gusting 10 15.9
2019-Dec-10 18:40 255 8 gusting 13 15.9
2019-Dec-10 18:35 253 7 gusting 11 15.9
2019-Dec-10 18:30 259 6 gusting 11 16.0
2019-Dec-10 18:25 257 7 gusting 11 16.0
2019-Dec-10 18:20 256 7 gusting 11 16.1
2019-Dec-10 18:15 253 7 gusting 11 16.3
2019-Dec-10 18:10 252 7 gusting 12 16.5
2019-Dec-10 18:05 253 8 gusting 13 16.7
2019-Dec-10 18:00 255 7 gusting 11 16.9
2019-Dec-10 17:55 252 7 gusting 12 17.0
2019-Dec-10 17:50 249 9 gusting 14 17.1
2019-Dec-10 17:45 249 7 gusting 10 17.1
2019-Dec-10 17:40 257 6 gusting 10 16.9
2019-Dec-10 17:35 256 6 gusting 11 16.9
2019-Dec-10 17:30 254 7 gusting 10 16.9
2019-Dec-10 17:25 260 7 gusting 12 16.9
2019-Dec-10 17:20 257 6 gusting 11 16.9
2019-Dec-10 17:15 253 5 gusting 9 16.8
2019-Dec-10 17:10 253 8 gusting 13 16.7
2019-Dec-10 17:05 245 7 gusting 11 16.6
2019-Dec-10 17:00 243 6 gusting 11 16.6
2019-Dec-10 16:55 246 8 gusting 13 16.6
2019-Dec-10 16:50 241 8 gusting 12 16.5
2019-Dec-10 16:45 246 9 gusting 13 16.4
2019-Dec-10 16:40 241 7 gusting 12 16.4
2019-Dec-10 16:35 239 8 gusting 12 16.4
2019-Dec-10 16:30 244 9 gusting 16 16.4
2019-Dec-10 16:25 237 9 gusting 15 16.3
2019-Dec-10 16:20 236 9 gusting 14 16.3
2019-Dec-10 16:15 242 10 gusting 17 16.4
2019-Dec-10 16:10 236 10 gusting 18 16.4
2019-Dec-10 16:05 237 9 gusting 12 16.4
2019-Dec-10 16:00 239 9 gusting 15 16.5
2019-Dec-10 15:55 242 8 gusting 13 16.6
2019-Dec-10 15:50 241 10 gusting 17 16.8
2019-Dec-10 15:45 235 12 gusting 20 16.9
2019-Dec-10 15:40 234 9 gusting 17 16.9
2019-Dec-10 15:35 233 11 gusting 15 17.0
2019-Dec-10 15:30 233 9 gusting 17 17.0
2019-Dec-10 15:25 224 10 gusting 18 17.0
2019-Dec-10 15:20 230 12 gusting 19 16.9
2019-Dec-10 15:15 228 11 gusting 19 16.9
2019-Dec-10 15:10 225 11 gusting 19 16.8
2019-Dec-10 15:05 225 11 gusting 18 16.8
2019-Dec-10 15:00 234 11 gusting 19 16.8
2019-Dec-10 14:55 237 10 gusting 18 16.9
2019-Dec-10 14:50 233 11 gusting 18 16.8
2019-Dec-10 14:45 232 10 gusting 16 16.7
2019-Dec-10 14:40 224 10 gusting 16 16.6
2019-Dec-10 14:35 231 11 gusting 17 16.5
2019-Dec-10 14:30 229 9 gusting 14 16.3
2019-Dec-10 14:25 227 10 gusting 16 16.3
2019-Dec-10 14:20 226 11 gusting 17 16.2
2019-Dec-10 14:15 232 9 gusting 13 16.2
2019-Dec-10 14:10 233 10 gusting 18 16.2
2019-Dec-10 14:05 238 12 gusting 18 16.1
2019-Dec-10 14:00 243 9 gusting 14 16.0
2019-Dec-10 13:55 240 8 gusting 16 15.9
2019-Dec-10 13:50 238 7 gusting 13 15.8
2019-Dec-10 13:45 241 7 gusting 13 15.8
2019-Dec-10 13:40 232 9 gusting 15 15.8
2019-Dec-10 13:35 231 9 gusting 18 15.7
2019-Dec-10 13:30 231 9 gusting 14 15.7
2019-Dec-10 13:25 235 9 gusting 17 15.6
2019-Dec-10 13:20 232 7 gusting 13 15.5
2019-Dec-10 13:15 225 8 gusting 14 15.5
2019-Dec-10 13:10 223 8 gusting 16 15.4
2019-Dec-10 13:05 230 9 gusting 14 15.4
2019-Dec-10 13:00 226 8 gusting 14 15.3
2019-Dec-10 12:55 228 8 gusting 16 15.3
2019-Dec-10 12:50 224 9 gusting 13 15.3
2019-Dec-10 12:45 224 9 gusting 16 15.2
2019-Dec-10 12:40 225 9 gusting 16 15.3
2019-Dec-10 12:35 226 9 gusting 12 15.3
2019-Dec-10 12:30 225 9 gusting 15 15.3
2019-Dec-10 12:25 225 9 gusting 14 15.2
2019-Dec-10 12:20 227 9 gusting 13 15.2
2019-Dec-10 12:15 228 9 gusting 15 15.3
2019-Dec-10 12:10 237 8 gusting 15 15.2
2019-Dec-10 12:05 226 9 gusting 13 15.2
2019-Dec-10 12:00 229 8 gusting 13 15.3
2019-Dec-10 11:55 232 9 gusting 14 15.2
2019-Dec-10 11:50 224 9 gusting 14 15.2
2019-Dec-10 11:45 224 11 gusting 16 15.3
2019-Dec-10 11:40 223 9 gusting 16 15.2
2019-Dec-10 11:35 224 8 gusting 14 15.2
2019-Dec-10 11:30 231 8 gusting 13 15.2
2019-Dec-10 11:25 229 10 gusting 17 15.3
2019-Dec-10 11:20 226 9 gusting 17 15.2
2019-Dec-10 11:15 230 10 gusting 14 15.2
2019-Dec-10 11:10 230 7 gusting 11 15.2
2019-Dec-10 11:05 230 8 gusting 13 15.2
2019-Dec-10 11:00 232 10 gusting 17 15.3
2019-Dec-10 10:55 232 10 gusting 14 15.3
2019-Dec-10 10:50 228 9 gusting 13 15.3
2019-Dec-10 10:45 229 9 gusting 14 15.3
2019-Dec-10 10:40 226 9 gusting 17 15.3
2019-Dec-10 10:35 228 9 gusting 16 15.3
2019-Dec-10 10:30 223 8 gusting 13 15.3
2019-Dec-10 10:25 226 8 gusting 13 15.3
2019-Dec-10 10:20 233 7 gusting 14 15.3
2019-Dec-10 10:15 229 7 gusting 13 15.3
2019-Dec-10 10:10 232 7 gusting 11 15.3
2019-Dec-10 10:05 237 8 gusting 13 15.4
2019-Dec-10 10:00 234 8 gusting 12 15.3
2019-Dec-10 09:55 228 9 gusting 15 15.4
2019-Dec-10 09:50 239 10 gusting 16 15.4
2019-Dec-10 09:45 235 8 gusting 12 15.3
2019-Dec-10 09:40 233 8 gusting 11 15.3
2019-Dec-10 09:35 234 9 gusting 14 15.3
2019-Dec-10 09:30 228 9 gusting 13 15.3
2019-Dec-10 09:25 230 10 gusting 16 15.4
2019-Dec-10 09:20 225 11 gusting 17 15.3
2019-Dec-10 09:15 228 10 gusting 15 15.3
2019-Dec-10 09:10 227 9 gusting 16 15.2
2019-Dec-10 09:05 233 8 gusting 12 15.3
2019-Dec-10 09:00 237 9 gusting 15 15.3
2019-Dec-10 08:55 231 9 gusting 14 15.2
2019-Dec-10 08:50 231 9 gusting 13 15.2
2019-Dec-10 08:45 234 9 gusting 14 15.2
2019-Dec-10 08:40 228 9 gusting 13 15.1
2019-Dec-10 08:35 228 9 gusting 14 15.1
2019-Dec-10 08:30 231 9 gusting 15 15.1
2019-Dec-10 08:25 229 8 gusting 13 15.1
2019-Dec-10 08:20 229 8 gusting 12 15.1
2019-Dec-10 08:15 232 8 gusting 11 15.0
2019-Dec-10 08:10 232 9 gusting 13 15.1
2019-Dec-10 08:05 237 8 gusting 12 15.0
2019-Dec-10 08:00 232 7 gusting 13 15.0
2019-Dec-10 07:55 247 7 gusting 12 15.1
2019-Dec-10 07:50 234 8 gusting 14 15.0
2019-Dec-10 07:45 236 7 gusting 12 15.0
2019-Dec-10 07:40 227 8 gusting 13 15.0
2019-Dec-10 07:35 231 8 gusting 12 15.0
2019-Dec-10 07:30 236 8 gusting 13 14.9
2019-Dec-10 07:25 231 9 gusting 13 14.9
2019-Dec-10 07:20 231 9 gusting 14 15.0
2019-Dec-10 07:15 232 10 gusting 17 14.9
2019-Dec-10 07:10 229 8 gusting 13 14.9
2019-Dec-10 07:05 223 9 gusting 15 14.9
2019-Dec-10 07:00 228 9 gusting 15 14.9
2019-Dec-10 06:55 224 10 gusting 16 14.9
2019-Dec-10 06:50 224 8 gusting 12 14.9
2019-Dec-10 06:45 230 9 gusting 16 15.0
2019-Dec-10 06:40 230 10 gusting 17 15.0
2019-Dec-10 06:35 226 9 gusting 14 15.0
2019-Dec-10 06:30 223 11 gusting 19 15.0
2019-Dec-10 06:25 220 10 gusting 18 15.0
2019-Dec-10 06:20 230 11 gusting 17 15.1
2019-Dec-10 06:15 223 13 gusting 20 15.1
2019-Dec-10 06:10 226 12 gusting 18 15.1
2019-Dec-10 06:05 225 12 gusting 20 15.1
2019-Dec-10 06:00 230 12 gusting 18 15.1
2019-Dec-10 05:55 226 13 gusting 23 15.2
2019-Dec-10 05:50 222 12 gusting 23 15.1
2019-Dec-10 05:45 226 11 gusting 22 15.0
2019-Dec-10 05:40 224 10 gusting 17 15.0
2019-Dec-10 05:35 220 11 gusting 18 15.0
2019-Dec-10 05:30 219 10 gusting 16 14.9
2019-Dec-10 05:25 219 10 gusting 17 14.9
2019-Dec-10 05:20 229 12 gusting 17 15.0
2019-Dec-10 05:15 228 12 gusting 21 15.0
2019-Dec-10 05:10 228 10 gusting 16 15.0
2019-Dec-10 05:05 223 11 gusting 17 14.9
2019-Dec-10 05:00 225 8 gusting 15 14.8
2019-Dec-10 04:55 225 8 gusting 14 14.8
2019-Dec-10 04:50 225 11 gusting 17 14.8
2019-Dec-10 04:45 219 9 gusting 15 14.7
2019-Dec-10 04:40 224 9 gusting 15 14.7
2019-Dec-10 04:35 224 9 gusting 15 14.6
2019-Dec-10 04:30 223 10 gusting 19 14.6
2019-Dec-10 04:25 217 9 gusting 17 14.5
2019-Dec-10 04:20 218 11 gusting 18 14.5
2019-Dec-10 04:15 216 11 gusting 23 14.5
2019-Dec-10 04:10 216 11 gusting 20 14.4
2019-Dec-10 04:05 219 9 gusting 14 14.4
2019-Dec-10 04:00 224 11 gusting 16 14.4
2019-Dec-10 03:55 228 8 gusting 13 14.3
2019-Dec-10 03:50 232 9 gusting 14 14.2
2019-Dec-10 03:45 226 9 gusting 17 14.2
2019-Dec-10 03:40 231 10 gusting 18 14.2
2019-Dec-10 03:35 227 10 gusting 15 14.2
2019-Dec-10 03:30 228 10 gusting 16 14.1
2019-Dec-10 03:25 220 11 gusting 16 14.0
2019-Dec-10 03:20 223 10 gusting 17 14.0
2019-Dec-10 03:15 222 10 gusting 17 13.9
2019-Dec-10 03:10 214 10 gusting 17 13.8
2019-Dec-10 03:05 218 9 gusting 14 13.7
2019-Dec-10 03:00 217 9 gusting 15 13.7
2019-Dec-10 02:55 222 9 gusting 14 13.6
2019-Dec-10 02:50 218 8 gusting 13 13.5
2019-Dec-10 02:45 217 8 gusting 13 13.5
2019-Dec-10 02:40 224 9 gusting 17 13.5
2019-Dec-10 02:35 220 9 gusting 13 13.4
2019-Dec-10 02:30 223 8 gusting 13 13.3
2019-Dec-10 02:25 230 6 gusting 11 13.3
2019-Dec-10 02:20 233 7 gusting 12 13.3
2019-Dec-10 02:15 230 8 gusting 15 13.3
2019-Dec-10 02:10 231 8 gusting 16 13.3
2019-Dec-10 02:05 227 8 gusting 13 13.3
2019-Dec-10 02:00 232 8 gusting 12 13.3
2019-Dec-10 01:55 239 6 gusting 13 13.3
2019-Dec-10 01:50 240 8 gusting 16 13.3
2019-Dec-10 01:45 239 8 gusting 13 13.3
2019-Dec-10 01:40 242 8 gusting 14 13.4
2019-Dec-10 01:35 240 9 gusting 13 13.4
2019-Dec-10 01:30 239 9 gusting 14 13.4
2019-Dec-10 01:25 236 9 gusting 16 13.4
2019-Dec-10 01:20 234 8 gusting 13 13.4
2019-Dec-10 01:15 228 8 gusting 13 13.4
2019-Dec-10 01:10 228 7 gusting 11 13.4
2019-Dec-10 01:05 230 8 gusting 14 13.4
2019-Dec-10 01:00 232 8 gusting 12 13.3
2019-Dec-10 00:55 228 9 gusting 14 13.3
2019-Dec-10 00:50 224 8 gusting 14 13.2
2019-Dec-10 00:45 227 7 gusting 13 13.2
2019-Dec-10 00:40 222 7 gusting 12 13.2
2019-Dec-10 00:35 223 8 gusting 11 13.1
2019-Dec-10 00:30 223 7 gusting 11 13.0
2019-Dec-10 00:25 217 7 gusting 12 12.9
2019-Dec-10 00:20 227 6 gusting 8 12.9
2019-Dec-10 00:15 234 5 gusting 9 13.0
2019-Dec-10 00:10 244 6 gusting 10 13.0
2019-Dec-10 00:05 240 5 gusting 11 12.9
2019-Dec-10 00:00 241 5 gusting 8 12.9
2019-Dec-09 23:55 246 4 gusting 8 12.7
2019-Dec-09 23:50 241 5 gusting 7 12.7
2019-Dec-09 23:45 219 6 gusting 9 12.7
2019-Dec-09 23:40 201 6 gusting 9 12.5
2019-Dec-09 23:35 196 6 gusting 9 12.4
2019-Dec-09 23:30 197 7 gusting 9 12.3
2019-Dec-09 23:25 199 7 gusting 10 12.3
2019-Dec-09 23:20 203 6 gusting 11 12.1
2019-Dec-09 23:15 198 7 gusting 11 12.0
2019-Dec-09 23:10 197 6 gusting 8 11.9
2019-Dec-09 23:05 198 6 gusting 8 11.8
2019-Dec-09 23:00 192 5 gusting 9 11.6
2019-Dec-09 22:55 170 5 gusting 9 11.5
2019-Dec-09 22:50 191 5 gusting 7 11.4
2019-Dec-09 22:45 201 4 gusting 7 11.4
2019-Dec-09 22:40 211 5 gusting 7 11.4
2019-Dec-09 22:35 222 4 gusting 6 11.4
2019-Dec-09 22:30 211 3 gusting 5 11.3
2019-Dec-09 22:25 200 4 gusting 5 11.3
2019-Dec-09 22:20 194 4 gusting 6 11.2
2019-Dec-09 22:15 194 3 gusting 6 11.1
2019-Dec-09 22:10 200 5 gusting 7 11.1
2019-Dec-09 22:05 189 5 gusting 9 11.0
2019-Dec-09 22:00 175 4 gusting 6 10.9
2019-Dec-09 21:55 178 4 gusting 6 10.8
2019-Dec-09 21:50 173 4 gusting 6 10.7
2019-Dec-09 21:45 165 4 gusting 6 10.7
2019-Dec-09 21:40 163 4 gusting 6 10.7
2019-Dec-09 21:35 175 4 gusting 7 10.7
2019-Dec-09 21:30 176 4 gusting 8 10.6
2019-Dec-09 21:25 189 2 gusting 4 10.5
2019-Dec-09 21:20 201 3 gusting 5 10.5
2019-Dec-09 21:15 215 3 gusting 6 10.5
2019-Dec-09 21:10 229 1 gusting 2 10.4
2019-Dec-09 21:05 237 1 gusting 2 10.5
2019-Dec-09 21:00 208 1 gusting 2 10.4
2019-Dec-09 20:55 222 2 gusting 3 10.4
2019-Dec-09 20:50 232 1 gusting 2 10.5
2019-Dec-09 20:45 285 1 gusting 3 10.5
2019-Dec-09 20:40 294 3 gusting 5 10.5
2019-Dec-09 20:35 291 3 gusting 4 10.6
2019-Dec-09 20:30 260 2 gusting 4 10.6
2019-Dec-09 20:25 223 2 gusting 3 10.6
2019-Dec-09 20:20 237 2 gusting 3 10.5
2019-Dec-09 20:15 236 2 gusting 4 10.5
2019-Dec-09 20:10 212 2 gusting 4 10.5
2019-Dec-09 20:05 186 3 gusting 5 10.5
2019-Dec-09 20:00 198 3 gusting 4 10.5